createdAt,value
2019-03-29T00:01:40.936Z,24.37
2019-03-29T00:04:09.342Z,18.83
2019-03-29T00:06:37.778Z,25.53
2019-03-29T00:09:07.531Z,23.53
2019-03-29T00:11:36.201Z,20.83
2019-03-29T00:14:04.744Z,24.50
2019-03-29T00:16:33.149Z,19.10
2019-03-29T00:19:02.054Z,18.77
2019-03-29T00:21:30.686Z,21.43
2019-03-29T00:24:06.778Z,21.17
2019-03-29T00:26:29.245Z,21.00
2019-03-29T00:28:57.647Z,22.90
2019-03-29T00:31:26.054Z,19.93
2019-03-29T00:33:54.448Z,20.67
2019-03-29T00:36:22.862Z,20.90
2019-03-29T00:38:51.265Z,22.30
2019-03-29T00:41:19.672Z,19.17
2019-03-29T00:43:48.093Z,17.30
2019-03-29T00:46:16.491Z,18.67
2019-03-29T00:48:44.891Z,23.77
2019-03-29T00:51:13.306Z,20.80
2019-03-29T00:53:41.706Z,19.87
2019-03-29T00:56:10.115Z,21.70
2019-03-29T00:58:38.697Z,24.27
2019-03-29T01:01:07.086Z,19.93
2019-03-29T01:03:35.486Z,21.00
2019-03-29T01:06:05.630Z,16.97
2019-03-29T01:08:34.031Z,17.77
2019-03-29T01:11:02.543Z,20.27
2019-03-29T01:13:30.927Z,20.37
2019-03-29T01:15:59.330Z,23.50
2019-03-29T01:18:27.969Z,24.17
2019-03-29T01:20:56.390Z,19.23
2019-03-29T01:23:24.790Z,20.00
2019-03-29T01:25:53.194Z,22.97
2019-03-29T01:28:21.695Z,20.73
2019-03-29T01:30:50.238Z,21.00
2019-03-29T01:33:18.717Z,19.33
2019-03-29T01:35:47.146Z,17.97
2019-03-29T01:38:21.679Z,19.33
2019-03-29T01:40:45.674Z,21.00
2019-03-29T01:43:14.082Z,21.13
2019-03-29T01:45:42.482Z,22.37
2019-03-29T01:48:10.887Z,19.53
2019-03-29T01:50:39.298Z,22.57
2019-03-29T01:53:07.701Z,20.87
2019-03-29T01:55:36.170Z,22.23
2019-03-29T01:58:04.815Z,23.13
2019-03-29T02:00:36.131Z,20.37
2019-03-29T02:03:04.884Z,19.33
2019-03-29T02:05:33.298Z,23.23
2019-03-29T02:08:01.705Z,22.80
2019-03-29T02:10:30.098Z,24.70
2019-03-29T02:12:59.204Z,20.10
2019-03-29T02:15:28.297Z,19.67
2019-03-29T02:17:56.702Z,20.67
2019-03-29T02:20:25.178Z,22.90
2019-03-29T02:22:53.582Z,19.90
2019-03-29T02:25:21.983Z,22.30
2019-03-29T02:27:50.382Z,20.20
2019-03-29T02:30:18.926Z,24.37
2019-03-29T02:32:47.326Z,22.27
2019-03-29T02:35:15.806Z,19.33
2019-03-29T02:37:44.207Z,24.07
2019-03-29T02:40:12.752Z,19.50
2019-03-29T02:42:42.780Z,20.20
2019-03-29T02:45:11.288Z,21.43
2019-03-29T02:47:39.679Z,20.90
2019-03-29T02:50:09.134Z,21.47
2019-03-29T02:52:37.706Z,23.77
2019-03-29T02:55:06.948Z,20.23
2019-03-29T02:57:35.431Z,17.20
2019-03-29T03:00:08.384Z,18.87
2019-03-29T03:02:36.856Z,19.73
2019-03-29T03:05:06.123Z,18.87
2019-03-29T03:07:34.523Z,20.77
2019-03-29T03:10:03.703Z,19.27
2019-03-29T03:12:32.115Z,19.23
2019-03-29T03:15:00.516Z,27.63
2019-03-29T03:17:29.001Z,24.07
2019-03-29T03:19:57.398Z,20.27
2019-03-29T03:22:25.803Z,21.20
2019-03-29T03:24:54.199Z,19.47
2019-03-29T03:27:22.613Z,20.97
2019-03-29T03:29:51.013Z,19.93
2019-03-29T03:32:19.491Z,20.60
2019-03-29T03:34:47.899Z,21.80
2019-03-29T03:37:16.307Z,19.77
2019-03-29T03:39:44.708Z,18.00
2019-03-29T03:42:13.193Z,18.27
2019-03-29T03:44:41.584Z,22.33
2019-03-29T03:47:09.986Z,19.20
2019-03-29T03:49:38.638Z,19.33
2019-03-29T03:52:07.046Z,20.70
2019-03-29T03:54:35.455Z,23.17
2019-03-29T03:57:05.358Z,21.90
2019-03-29T03:59:34.439Z,20.93
2019-03-29T04:02:02.848Z,21.00
2019-03-29T04:04:31.266Z,19.73
2019-03-29T04:06:59.660Z,23.03
2019-03-29T04:09:28.063Z,20.70
2019-03-29T04:11:56.586Z,19.40
2019-03-29T04:14:25.040Z,19.37
2019-03-29T04:16:53.441Z,21.27
2019-03-29T04:19:21.848Z,22.37
2019-03-29T04:21:50.246Z,18.77
2019-03-29T04:24:18.646Z,23.77
2019-03-29T04:26:47.059Z,21.27
2019-03-29T04:29:15.458Z,22.53
2019-03-29T04:31:43.862Z,18.47
2019-03-29T04:34:12.278Z,16.57
2019-03-29T04:36:40.671Z,18.63
2019-03-29T04:39:09.075Z,18.13
2019-03-29T04:41:37.507Z,21.33
2019-03-29T04:44:05.906Z,23.83
2019-03-29T04:46:34.313Z,27.70
2019-03-29T04:49:02.747Z,20.17
2019-03-29T04:51:31.146Z,20.70
2019-03-29T04:53:59.550Z,20.80
2019-03-29T04:56:27.958Z,21.00
2019-03-29T04:58:56.360Z,23.03
2019-03-29T05:01:24.762Z,20.30
2019-03-29T05:03:53.170Z,23.83
2019-03-29T05:06:21.571Z,22.43
2019-03-29T05:08:49.974Z,16.87
2019-03-29T05:11:18.382Z,22.73
2019-03-29T05:13:46.809Z,22.07
2019-03-29T05:16:15.259Z,19.37
2019-03-29T05:18:43.666Z,21.87
2019-03-29T05:21:12.069Z,20.33
2019-03-29T05:23:40.474Z,25.10
2019-03-29T05:26:08.886Z,17.20
2019-03-29T05:28:37.286Z,21.27
2019-03-29T05:31:05.690Z,18.67
2019-03-29T05:33:34.098Z,20.57
2019-03-29T05:36:02.510Z,25.57
2019-03-29T05:38:30.919Z,22.40
2019-03-29T05:40:59.322Z,18.40
2019-03-29T05:43:27.727Z,17.63
2019-03-29T05:45:56.131Z,20.77
2019-03-29T05:48:24.533Z,22.90
2019-03-29T05:50:52.966Z,24.03
2019-03-29T05:53:21.364Z,27.83
2019-03-29T05:55:49.775Z,22.07
2019-03-29T05:58:18.209Z,27.77
2019-03-29T06:00:46.626Z,28.37
2019-03-29T06:03:15.038Z,25.07
2019-03-29T06:05:43.439Z,22.47
2019-03-29T06:08:11.835Z,25.70
2019-03-29T06:10:48.779Z,21.57
2019-03-29T06:13:10.370Z,25.43
2019-03-29T06:15:38.793Z,22.50
2019-03-29T06:18:07.209Z,29.13
2019-03-29T06:20:35.611Z,22.77
2019-03-29T06:23:04.010Z,24.70
2019-03-29T06:25:32.459Z,21.87
2019-03-29T06:28:00.858Z,24.00
2019-03-29T06:30:30.002Z,24.80
2019-03-29T06:32:58.860Z,25.63
2019-03-29T06:35:30.667Z,29.90
2019-03-29T06:37:59.341Z,28.43
2019-03-29T06:40:27.819Z,25.90
2019-03-29T06:42:56.222Z,25.33
2019-03-29T06:45:24.622Z,25.37
2019-03-29T06:47:53.038Z,26.13
2019-03-29T06:50:21.434Z,23.00
2019-03-29T06:52:49.834Z,24.30
2019-03-29T06:55:18.250Z,19.50
2019-03-29T06:57:46.650Z,20.23
2019-03-29T07:00:15.213Z,19.93
2019-03-29T07:02:43.618Z,21.23
2019-03-29T07:05:12.010Z,24.27
2019-03-29T07:07:40.410Z,18.50
2019-03-29T07:10:09.162Z,21.03
2019-03-29T07:12:37.570Z,20.97
2019-03-29T07:15:07.010Z,19.97
2019-03-29T07:17:35.434Z,19.03
2019-03-29T07:20:05.868Z,16.17
2019-03-29T07:22:34.725Z,17.93
2019-03-29T07:25:04.246Z,18.73
2019-03-29T07:27:43.971Z,17.67
2019-03-29T07:30:03.156Z,19.67
2019-03-29T07:32:31.599Z,18.07
2019-03-29T07:35:00.006Z,18.60
2019-03-29T07:37:28.410Z,16.13
2019-03-29T07:39:56.826Z,18.97
2019-03-29T07:42:25.242Z,19.97
2019-03-29T07:44:53.650Z,18.80
2019-03-29T07:47:22.138Z,18.73
2019-03-29T07:49:50.548Z,17.87
2019-03-29T07:52:18.951Z,17.27
2019-03-29T07:54:47.371Z,15.43
2019-03-29T07:57:15.778Z,15.80
2019-03-29T07:59:44.262Z,14.33
2019-03-29T08:02:12.713Z,15.53
2019-03-29T08:04:41.106Z,16.97
2019-03-29T08:07:09.514Z,17.33
2019-03-29T08:09:37.938Z,14.57
2019-03-29T08:12:06.359Z,18.27
2019-03-29T08:14:34.767Z,14.73
2019-03-29T08:17:03.182Z,14.77
2019-03-29T08:19:31.616Z,15.53
2019-03-29T08:22:00.002Z,14.83
2019-03-29T08:24:28.423Z,17.20
2019-03-29T08:26:56.826Z,11.83
2019-03-29T08:29:25.230Z,13.40
2019-03-29T08:31:55.533Z,14.73
2019-03-29T08:34:23.778Z,11.97
2019-03-29T08:36:52.350Z,11.37
2019-03-29T08:39:27.820Z,10.73
2019-03-29T08:42:00.006Z,12.77
2019-03-29T08:44:21.018Z,9.70
2019-03-29T08:46:49.448Z,11.10
2019-03-29T08:49:17.840Z,10.73
2019-03-29T08:51:46.247Z,12.80
2019-03-29T08:54:14.678Z,9.80
2019-03-29T08:56:43.079Z,8.77
2019-03-29T08:59:11.475Z,9.10
2019-03-29T09:01:40.120Z,9.80
2019-03-29T09:04:08.589Z,7.33
2019-03-29T09:06:37.054Z,7.00
2019-03-29T09:09:06.902Z,6.53
2019-03-29T09:11:38.569Z,7.30
2019-03-29T09:14:05.436Z,7.60
2019-03-29T09:16:33.846Z,7.03
2019-03-29T09:19:02.254Z,7.67
2019-03-29T09:21:30.655Z,6.63
2019-03-29T09:23:59.179Z,6.40
2019-03-29T09:26:27.575Z,8.07
2019-03-29T09:28:55.987Z,6.80
2019-03-29T09:31:24.418Z,6.07
2019-03-29T09:33:52.821Z,5.87
2019-03-29T09:36:21.219Z,5.50
2019-03-29T09:38:49.949Z,6.03
2019-03-29T09:41:18.414Z,5.43
2019-03-29T09:43:47.101Z,4.80
2019-03-29T09:46:15.498Z,5.00
2019-03-29T09:48:43.888Z,5.27
2019-03-29T09:51:12.291Z,4.97
2019-03-29T09:53:41.381Z,5.43
2019-03-29T09:56:09.990Z,5.23
2019-03-29T09:58:38.398Z,4.67
2019-03-29T10:01:06.839Z,5.13
2019-03-29T10:03:35.487Z,5.43
2019-03-29T10:06:03.904Z,4.93
2019-03-29T10:08:32.320Z,4.33
2019-03-29T10:11:00.739Z,4.87
2019-03-29T10:13:29.431Z,5.43
2019-03-29T10:15:57.847Z,5.23
2019-03-29T10:18:26.242Z,5.17
2019-03-29T10:20:54.646Z,4.93
2019-03-29T10:23:22.728Z,5.70
2019-03-29T10:25:51.131Z,5.80
2019-03-29T10:28:19.535Z,5.62
2019-03-29T10:30:47.978Z,5.72
2019-03-29T10:33:16.384Z,5.87
2019-03-29T10:35:51.949Z,5.05
2019-03-29T10:38:18.066Z,5.75
2019-03-29T10:40:45.050Z,5.97
2019-03-29T10:43:13.525Z,5.63
2019-03-29T10:45:41.943Z,5.40
2019-03-29T10:48:10.346Z,5.33
2019-03-29T10:50:39.017Z,5.72
2019-03-29T10:53:07.475Z,5.43
2019-03-29T10:55:35.882Z,5.72
2019-03-29T10:58:04.351Z,5.33
2019-03-29T11:00:35.270Z,5.55
2019-03-29T11:03:03.746Z,5.75
2019-03-29T11:05:32.146Z,6.10
2019-03-29T11:08:00.559Z,5.90
2019-03-29T11:10:33.816Z,4.78
2019-03-29T11:13:12.731Z,5.00
2019-03-29T11:15:32.644Z,4.83
2019-03-29T11:18:01.051Z,5.05
2019-03-29T11:20:29.529Z,5.03
2019-03-29T11:22:58.022Z,5.50
2019-03-29T11:25:26.495Z,5.70
2019-03-29T11:27:54.974Z,6.33
2019-03-29T11:30:23.395Z,6.07
2019-03-29T11:32:51.875Z,6.60
2019-03-29T11:35:20.287Z,6.73
2019-03-29T11:37:48.726Z,7.13
2019-03-29T11:40:17.319Z,6.47
2019-03-29T11:42:45.774Z,7.27
2019-03-29T11:45:14.360Z,6.43
2019-03-29T11:47:42.765Z,8.07
2019-03-29T11:50:11.506Z,6.73
2019-03-29T11:52:39.938Z,6.60
2019-03-29T11:55:08.414Z,6.50
2019-03-29T11:57:36.818Z,6.77
2019-03-29T12:00:10.399Z,5.70
2019-03-29T12:02:38.808Z,7.50
2019-03-29T12:05:07.560Z,5.90
2019-03-29T12:07:35.963Z,5.63
2019-03-29T12:10:06.110Z,5.80
2019-03-29T12:12:34.514Z,6.17
2019-03-29T12:15:03.006Z,6.20
2019-03-29T12:17:31.763Z,6.90
2019-03-29T12:20:00.332Z,6.50
2019-03-29T12:22:28.866Z,6.33
2019-03-29T12:24:57.267Z,6.80
2019-03-29T12:27:25.735Z,6.83
2019-03-29T12:29:54.164Z,6.90
2019-03-29T12:32:22.626Z,7.07
2019-03-29T12:34:51.031Z,7.70
2019-03-29T12:37:19.451Z,7.83
2019-03-29T12:39:47.854Z,7.63
2019-03-29T12:42:16.253Z,7.47
2019-03-29T12:44:44.689Z,6.93
2019-03-29T12:47:13.090Z,7.10
2019-03-29T12:49:41.494Z,7.70
2019-03-29T12:52:09.922Z,6.90
2019-03-29T12:54:38.329Z,7.70
2019-03-29T12:57:07.071Z,7.07
2019-03-29T12:59:35.721Z,6.43
2019-03-29T13:02:04.199Z,6.77
2019-03-29T13:04:32.608Z,6.53
2019-03-29T13:07:01.020Z,6.43
2019-03-29T13:09:29.751Z,6.40
2019-03-29T13:11:58.158Z,6.63
2019-03-29T13:14:26.587Z,6.40
2019-03-29T13:16:54.986Z,5.67
2019-03-29T13:19:23.397Z,6.20
2019-03-29T13:21:51.810Z,6.27
2019-03-29T13:24:20.214Z,6.43
2019-03-29T13:26:48.602Z,5.83
2019-03-29T13:29:17.043Z,7.00
2019-03-29T13:31:45.515Z,7.10
2019-03-29T13:34:13.914Z,7.00
2019-03-29T13:36:42.333Z,6.43
2019-03-29T13:39:10.882Z,6.90
2019-03-29T13:41:39.283Z,7.27
2019-03-29T13:44:07.698Z,7.23
2019-03-29T13:46:36.174Z,6.53
2019-03-29T13:49:04.646Z,7.13
2019-03-29T13:51:33.550Z,6.00
2019-03-29T13:54:02.201Z,7.17
2019-03-29T13:56:30.598Z,5.97
2019-03-29T13:58:59.030Z,7.53
2019-03-29T14:01:27.438Z,11.57
2019-03-29T14:03:55.834Z,7.40
2019-03-29T14:06:24.518Z,7.07
2019-03-29T14:08:53.218Z,6.50
2019-03-29T14:11:21.610Z,7.37
2019-03-29T14:13:50.014Z,7.00
2019-03-29T14:16:18.414Z,8.20
2019-03-29T14:18:46.814Z,7.10
2019-03-29T14:21:15.219Z,7.43
2019-03-29T14:23:43.626Z,9.07
2019-03-29T14:26:12.026Z,7.63
2019-03-29T14:28:40.444Z,8.27
2019-03-29T14:31:09.007Z,8.00
2019-03-29T14:33:37.410Z,7.17
2019-03-29T14:36:05.810Z,7.57
2019-03-29T14:38:34.221Z,7.13
2019-03-29T14:41:02.606Z,7.07
2019-03-29T14:43:31.006Z,7.63
2019-03-29T14:45:59.423Z,7.60
2019-03-29T14:48:27.824Z,7.17
2019-03-29T14:50:56.574Z,7.23
2019-03-29T14:53:24.986Z,6.97
2019-03-29T14:55:53.393Z,6.93
2019-03-29T14:58:21.797Z,7.77
2019-03-29T15:00:50.214Z,7.97
2019-03-29T15:03:18.986Z,7.23
2019-03-29T15:05:47.392Z,7.77
2019-03-29T15:08:15.795Z,8.13
2019-03-29T15:10:45.799Z,8.13
2019-03-29T15:13:14.499Z,7.40
2019-03-29T15:15:42.910Z,6.90
2019-03-29T15:18:11.322Z,6.50
2019-03-29T15:20:52.667Z,7.00
2019-03-29T15:23:09.892Z,7.07
2019-03-29T15:25:40.609Z,8.10
2019-03-29T15:28:08.466Z,7.77
2019-03-29T15:30:36.874Z,8.40
2019-03-29T15:33:05.286Z,8.07
2019-03-29T15:35:33.922Z,7.23
2019-03-29T15:38:02.354Z,7.83
2019-03-29T15:40:30.786Z,7.90
2019-03-29T15:42:59.186Z,8.07
2019-03-29T15:45:27.661Z,7.37
2019-03-29T15:47:56.075Z,8.50
2019-03-29T15:50:24.474Z,7.30
2019-03-29T15:52:52.874Z,8.10
2019-03-29T15:55:21.283Z,6.80
2019-03-29T15:57:49.710Z,7.67
2019-03-29T16:00:18.250Z,7.27
2019-03-29T16:02:46.656Z,7.70
2019-03-29T16:05:15.070Z,8.53
2019-03-29T16:07:43.462Z,8.30
2019-03-29T16:10:12.005Z,8.23
2019-03-29T16:12:40.418Z,7.20
2019-03-29T16:15:09.566Z,10.87
2019-03-29T16:17:37.967Z,8.93
2019-03-29T16:20:07.123Z,7.67
2019-03-29T16:22:35.794Z,7.60
2019-03-29T16:25:06.530Z,8.07
2019-03-29T16:27:34.962Z,8.83
2019-03-29T16:30:04.605Z,11.17
2019-03-29T16:32:33.006Z,9.77
2019-03-29T16:35:01.423Z,9.50
2019-03-29T16:37:29.822Z,8.97
2019-03-29T16:39:58.298Z,8.10
2019-03-29T16:42:26.713Z,8.80
2019-03-29T16:44:55.102Z,9.43
2019-03-29T16:47:23.506Z,9.17
2019-03-29T16:49:51.923Z,9.40
2019-03-29T16:52:20.322Z,10.13
2019-03-29T16:54:48.724Z,11.30
2019-03-29T16:57:17.380Z,17.10
2019-03-29T16:59:45.783Z,14.07
2019-03-29T17:02:14.281Z,11.73
2019-03-29T17:04:42.723Z,9.87
2019-03-29T17:07:11.366Z,11.37
2019-03-29T17:09:39.776Z,13.07
2019-03-29T17:12:08.188Z,10.00
2019-03-29T17:14:36.590Z,9.90
2019-03-29T17:17:04.994Z,11.80
2019-03-29T17:19:33.404Z,9.33
2019-03-29T17:22:01.806Z,9.53
2019-03-29T17:24:30.282Z,10.23
2019-03-29T17:26:58.686Z,12.60
2019-03-29T17:29:27.114Z,14.43
2019-03-29T17:31:57.083Z,10.27
2019-03-29T17:34:25.474Z,10.53
2019-03-29T17:36:53.965Z,13.10
2019-03-29T17:39:22.737Z,13.23
2019-03-29T17:41:51.416Z,10.73
2019-03-29T17:44:19.858Z,12.67
2019-03-29T17:46:48.294Z,10.40
2019-03-29T17:49:16.694Z,14.87
2019-03-29T17:51:45.113Z,9.97
2019-03-29T17:54:13.518Z,11.13
2019-03-29T17:56:41.925Z,10.20
2019-03-29T17:59:10.347Z,11.83
2019-03-29T18:01:39.465Z,12.00
2019-03-29T18:04:08.034Z,10.40
2019-03-29T18:06:36.446Z,11.20
2019-03-29T18:09:07.332Z,13.97
2019-03-29T18:11:36.113Z,12.73
2019-03-29T18:14:04.606Z,17.80
2019-03-29T18:16:33.100Z,14.50
2019-03-29T18:19:01.498Z,11.90
2019-03-29T18:21:30.261Z,11.27
2019-03-29T18:23:58.659Z,13.40
2019-03-29T18:26:27.147Z,10.83
2019-03-29T18:28:55.595Z,13.20
2019-03-29T18:31:24.070Z,11.37
2019-03-29T18:33:52.547Z,17.77
2019-03-29T18:36:21.102Z,14.00
2019-03-29T18:38:49.507Z,12.23
2019-03-29T18:41:18.242Z,10.87
2019-03-29T18:43:46.662Z,11.60
2019-03-29T18:46:15.082Z,13.53
2019-03-29T18:48:43.486Z,15.63
2019-03-29T18:51:11.934Z,13.87
2019-03-29T18:53:40.342Z,12.60
2019-03-29T18:56:08.760Z,17.57
2019-03-29T18:58:37.186Z,12.30
2019-03-29T19:01:05.686Z,17.17
2019-03-29T19:03:34.082Z,13.97
2019-03-29T19:06:02.882Z,15.47
2019-03-29T19:08:31.293Z,12.83
2019-03-29T19:10:59.762Z,14.90
2019-03-29T19:13:28.188Z,22.13
2019-03-29T19:15:56.597Z,20.87
2019-03-29T19:18:24.998Z,19.33
2019-03-29T19:23:16.415Z,16.73
2019-03-29T19:25:44.822Z,16.87
2019-03-29T19:28:13.326Z,15.97
2019-03-29T19:30:41.759Z,16.73
2019-03-29T19:33:10.157Z,16.87
2019-03-29T19:35:38.582Z,16.60
2019-03-29T19:38:06.990Z,17.77
2019-03-29T19:40:35.478Z,17.33
2019-03-29T19:43:03.996Z,17.20
2019-03-29T19:45:34.318Z,19.43
2019-03-29T19:48:02.535Z,21.77
2019-03-29T19:50:30.951Z,18.90
2019-03-29T19:52:59.346Z,17.47
2019-03-29T19:55:28.315Z,23.10
2019-03-29T19:57:56.962Z,17.40
2019-03-29T20:00:39.441Z,20.43
2019-03-29T20:03:09.990Z,19.03
2019-03-29T20:05:38.468Z,18.17
2019-03-29T20:08:07.049Z,18.47
2019-03-29T20:10:35.464Z,17.70
2019-03-29T20:13:04.614Z,17.67
2019-03-29T20:15:33.018Z,23.17
2019-03-29T20:18:02.114Z,18.50
2019-03-29T20:20:30.526Z,20.13
2019-03-29T20:22:59.433Z,19.50
2019-03-29T20:25:27.850Z,19.23
2019-03-29T20:27:58.331Z,19.87
2019-03-29T20:30:26.559Z,18.33
2019-03-29T20:32:55.041Z,21.07
2019-03-29T20:35:23.465Z,22.30
2019-03-29T20:37:51.866Z,23.23
2019-03-29T20:40:20.296Z,20.87
2019-03-29T20:42:48.698Z,20.63
2019-03-29T20:45:17.366Z,21.87
2019-03-29T20:47:45.855Z,17.47
2019-03-29T20:50:15.002Z,17.27
2019-03-29T20:52:43.413Z,21.50
2019-03-29T20:55:11.967Z,17.97
2019-03-29T20:57:41.436Z,15.60
2019-03-29T21:00:11.914Z,17.50
2019-03-29T21:02:40.303Z,14.87
2019-03-29T21:05:08.797Z,15.57
2019-03-29T21:07:37.206Z,15.20
2019-03-29T21:10:07.173Z,17.20
2019-03-29T21:12:35.577Z,13.40
2019-03-29T21:15:05.595Z,17.07
2019-03-29T21:17:34.290Z,16.33
2019-03-29T21:20:04.418Z,11.37
2019-03-29T21:22:32.822Z,14.27
2019-03-29T21:25:01.263Z,12.53
2019-03-29T21:27:29.700Z,11.57
2019-03-29T21:29:58.143Z,13.73
2019-03-29T21:32:27.316Z,14.27
2019-03-29T21:34:55.734Z,18.57
2019-03-29T21:37:24.150Z,19.93
2019-03-29T21:39:52.614Z,19.40
2019-03-29T21:42:21.016Z,20.90
2019-03-29T21:44:49.427Z,20.33
2019-03-29T21:47:17.838Z,19.13
2019-03-29T21:49:45.929Z,21.87
2019-03-29T21:52:15.150Z,20.80
2019-03-29T21:54:43.571Z,17.50
2019-03-29T21:57:11.979Z,19.17
2019-03-29T21:59:40.387Z,23.00
2019-03-29T22:02:08.813Z,22.87
2019-03-29T22:04:37.274Z,23.47
2019-03-29T22:07:05.683Z,22.27
2019-03-29T22:09:37.239Z,13.27
2019-03-29T22:12:04.393Z,14.00
2019-03-29T22:14:32.806Z,17.70
2019-03-29T22:17:01.226Z,16.23
2019-03-29T22:19:29.658Z,15.17
2019-03-29T22:21:58.066Z,20.27
2019-03-29T22:24:26.702Z,16.40
2019-03-29T22:26:55.151Z,17.63
2019-03-29T22:29:23.561Z,19.00
2019-03-29T22:31:51.964Z,20.57
2019-03-29T22:34:20.410Z,21.63
2019-03-29T22:36:48.810Z,21.70
2019-03-29T22:39:17.223Z,22.37
2019-03-29T22:41:45.742Z,24.93
2019-03-29T22:44:14.142Z,25.63
2019-03-29T22:46:42.553Z,20.27
2019-03-29T22:49:10.970Z,24.90
2019-03-29T22:51:39.378Z,21.50
2019-03-29T22:54:08.078Z,21.23
2019-03-29T22:56:36.771Z,19.60
2019-03-29T22:59:05.172Z,16.37
2019-03-29T23:01:36.684Z,13.40
2019-03-29T23:04:05.267Z,12.67
2019-03-29T23:06:34.462Z,14.50
2019-03-29T23:09:02.884Z,7.67
2019-03-29T23:11:31.296Z,9.00
2019-03-29T23:13:59.694Z,6.97
2019-03-29T23:16:30.419Z,7.17
2019-03-29T23:19:06.392Z,9.87
2019-03-29T23:21:28.359Z,6.37
2019-03-29T23:23:56.759Z,5.63
2019-03-29T23:26:25.184Z,6.07
2019-03-29T23:28:53.571Z,6.80
2019-03-29T23:31:21.980Z,5.20
2019-03-29T23:33:50.407Z,5.63
2019-03-29T23:36:18.814Z,7.77
2019-03-29T23:38:47.211Z,7.57
2019-03-29T23:41:15.626Z,6.37
2019-03-29T23:43:44.026Z,9.73
2019-03-29T23:46:12.428Z,7.43
2019-03-29T23:48:40.839Z,5.50
2019-03-29T23:51:09.238Z,6.43
2019-03-29T23:53:39.174Z,6.00
2019-03-29T23:56:07.598Z,6.50
2019-03-29T23:58:36.000Z,6.53
